Time;durP1;ratioP1;P1;durP2;ratioP2;P2;SDS_P1;SDS_P2;PMS_P1;PMS_P2;Temp;Humidity;BMP_temperature;BMP_pressure;BME280_temperature;BME280_humidity;BME280_pressure;Samples;Min_cycle;Max_cycle;Signal;HPM_P1;HPM_P2
2021/10/01 00:00:58;;;;;;;20.55;10.75;;;;;;;7.25;62.92;102595.38;1718715;83;25766;-66
2021/10/01 00:03:41;;;;;;;17.37;9.33;;;;;;;7.19;62.89;102589.83;1721232;83;27423;-68
2021/10/01 00:06:08;;;;;;;19.70;10.13;;;;;;;7.12;62.83;102595.06;1722503;81;25794;-66
2021/10/01 00:08:36;;;;;;;20.52;9.33;;;;;;;7.04;63.46;102595.39;1722405;83;25773;-66
2021/10/01 00:11:03;;;;;;;16.90;10.00;;;;;;;6.94;62.95;102594.54;1722879;81;26157;-66
2021/10/01 00:13:31;;;;;;;15.25;9.73;;;;;;;6.86;63.04;102594.86;1717496;83;25749;-67
2021/10/01 00:15:58;;;;;;;20.05;10.53;;;;;;;6.78;63.25;102603.69;1717353;83;27251;-66
2021/10/01 00:18:25;;;;;;;16.65;10.23;;;;;;;6.71;63.59;102599.06;1717066;83;26483;-67
2021/10/01 00:20:52;;;;;;;26.87;11.43;;;;;;;6.66;63.34;102607.28;1718496;82;25812;-66
2021/10/01 00:23:27;;;;;;;19.52;11.00;;;;;;;6.61;63.33;102599.94;1721381;82;26530;-66
2021/10/01 00:25:54;;;;;;;17.07;9.98;;;;;;;6.59;63.40;102603.14;1721609;81;25829;-66
2021/10/01 00:28:21;;;;;;;18.98;11.00;;;;;;;6.55;63.44;102594.38;1722574;81;27479;-66
2021/10/01 00:30:49;;;;;;;21.62;10.10;;;;;;;6.51;63.61;102594.09;1721185;81;25725;-67
2021/10/01 00:33:16;;;;;;;19.57;10.35;;;;;;;6.50;63.94;102592.35;1721209;83;25762;-66
2021/10/01 00:35:43;;;;;;;19.45;9.80;;;;;;;6.47;64.50;102591.16;1722770;83;26985;-66
2021/10/01 00:38:10;;;;;;;16.48;8.95;;;;;;;6.46;64.56;102592.09;1722345;81;25830;-66
2021/10/01 00:40:40;;;;;;;17.45;9.15;;;;;;;6.47;64.88;102596.52;1715433;83;27457;-67
2021/10/01 00:43:08;;;;;;;18.52;8.93;;;;;;;6.48;65.18;102590.23;1724219;81;25962;-66
2021/10/01 00:45:35;;;;;;;19.37;8.28;;;;;;;6.51;65.44;102587.89;1721783;81;25768;-67
2021/10/01 00:48:06;;;;;;;19.85;8.30;;;;;;;6.55;65.40;102597.05;1722309;81;25775;-66
2021/10/01 00:50:36;;;;;;;14.68;8.03;;;;;;;6.57;65.57;102591.19;1721941;81;26437;-66
2021/10/01 00:53:03;;;;;;;16.25;8.05;;;;;;;6.61;65.73;102592.37;1718632;83;29305;-66
2021/10/01 00:55:32;;;;;;;13.95;7.55;;;;;;;6.65;65.57;102604.69;1716800;83;26524;-67
2021/10/01 00:58:03;;;;;;;25.48;8.45;;;;;;;6.67;65.87;102598.81;1716425;81;25736;-66
2021/10/01 01:00:31;;;;;;;13.30;8.68;;;;;;;6.68;65.93;102593.88;1718869;83;25850;-66
2021/10/01 01:03:02;;;;;;;20.23;8.58;;;;;;;6.71;66.17;102586.58;1721451;83;25749;-67
2021/10/01 01:05:47;;;;;;;15.23;9.05;;;;;;;6.74;66.02;102588.25;1687209;83;26623;-67
2021/10/01 01:08:21;;;;;;;14.40;7.58;;;;;;;6.78;66.03;102589.84;1712230;83;27944;-66
2021/10/01 01:10:56;;;;;;;14.98;8.23;;;;;;;6.80;66.09;102588.45;1721456;83;25760;-66
2021/10/01 01:13:54;;;;;;;12.95;7.17;;;;;;;6.79;66.16;102593.40;1691426;83;27043;-66
2021/10/01 01:16:33;;;;;;;15.93;7.58;;;;;;;6.77;66.00;102589.43;1721815;83;25817;-66
2021/10/01 01:19:02;;;;;;;19.05;8.10;;;;;;;6.78;65.96;102587.64;1722196;81;27370;-66
2021/10/01 01:21:57;;;;;;;14.13;8.28;;;;;;;6.76;66.20;102590.39;1716421;83;25748;-65
2021/10/01 01:25:21;;;;;;;15.75;9.78;;;;;;;6.76;65.94;102587.72;1715210;83;25812;-67
2021/10/01 01:28:11;;;;;;;13.68;9.25;;;;;;;6.71;65.61;102586.58;1722827;81;25906;-65
2021/10/01 01:30:44;;;;;;;22.55;10.13;;;;;;;6.64;65.31;102593.11;1720648;83;26161;-67
2021/10/01 01:33:20;;;;;;;16.20;9.40;;;;;;;6.57;65.35;102589.84;1722057;83;27431;-66
2021/10/01 01:35:55;;;;;;;15.18;10.30;;;;;;;6.45;65.18;102584.15;1721415;83;25848;-66
2021/10/01 01:38:32;;;;;;;;;;;;;;;6.35;65.50;102589.00;1718281;83;25769;-66
2021/10/01 01:41:03;;;;;;;18.48;9.78;;;;;;;6.28;65.35;102584.84;1710800;83;26480;-66
2021/10/01 01:43:33;;;;;;;14.55;10.10;;;;;;;6.18;65.36;102589.23;1723960;82;25917;-66
2021/10/01 01:46:03;;;;;;;22.13;10.13;;;;;;;6.11;65.50;102585.08;1724128;82;27855;-66
2021/10/01 01:48:32;;;;;;;16.80;9.13;;;;;;;6.08;65.42;102593.20;1686271;84;25823;-66
2021/10/01 01:51:02;;;;;;;17.00;10.75;;;;;;;6.01;65.72;102586.37;1706411;84;25779;-66
2021/10/01 01:53:35;;;;;;;19.87;12.05;;;;;;;5.94;65.66;102589.72;1682499;84;25873;-66
2021/10/01 01:56:09;;;;;;;25.52;11.40;;;;;;;5.88;65.75;102593.50;1706436;82;25889;-66
2021/10/01 01:58:41;;;;;;;19.05;11.15;;;;;;;5.80;65.65;102592.93;1702442;82;27909;-66
2021/10/01 02:01:11;;;;;;;19.80;9.93;;;;;;;5.73;65.82;102590.10;1703802;83;26760;-66
2021/10/01 02:03:41;;;;;;;23.25;10.58;;;;;;;5.67;65.89;102593.88;1706715;83;25785;-66
2021/10/01 02:06:12;;;;;;;17.32;10.48;;;;;;;5.64;66.01;102595.34;1707321;83;27087;-67
2021/10/01 02:08:43;;;;;;;22.73;10.63;;;;;;;5.57;66.01;102595.16;1703395;83;25706;-66
2021/10/01 02:11:15;;;;;;;17.87;10.70;;;;;;;5.52;65.93;102599.81;1715941;82;27424;-65
2021/10/01 02:13:42;;;;;;;18.90;10.78;;;;;;;5.47;66.20;102598.17;1730601;81;25473;-66
2021/10/01 02:16:15;;;;;;;11.83;8.83;;;;;;;5.49;66.72;102600.33;1685426;84;26599;-66
2021/10/01 02:18:44;;;;;;;17.90;8.40;;;;;;;5.52;66.98;102602.00;1707311;84;25817;-66
2021/10/01 02:21:15;;;;;;;15.10;9.25;;;;;;;5.55;66.95;102601.05;1685387;84;25503;-66
2021/10/01 02:23:44;;;;;;;16.45;8.68;;;;;;;5.59;67.23;102603.98;1707624;84;28193;-66
2021/10/01 02:26:35;;;;;;;18.17;7.55;;;;;;;5.57;67.41;102604.05;1709868;83;25706;-66
2021/10/01 02:29:23;;;;;;;24.85;7.87;;;;;;;5.56;67.50;102600.12;1703814;83;25792;-66
2021/10/01 02:32:11;;;;;;;16.25;9.40;;;;;;;5.53;67.58;102605.56;1703164;83;26151;-67
2021/10/01 02:34:43;;;;;;;17.87;8.40;;;;;;;5.50;67.41;102602.55;1702837;83;25800;-67
2021/10/01 02:37:14;;;;;;;16.12;8.23;;;;;;;5.51;67.79;102598.06;1703404;83;27361;-66
2021/10/01 02:39:46;;;;;;;20.23;8.68;;;;;;;5.53;67.70;102603.75;1707345;81;25593;-67
2021/10/01 02:42:15;;;;;;;15.65;8.75;;;;;;;5.56;67.75;102606.31;1714865;83;25819;-66
2021/10/01 02:44:51;;;;;;;20.32;7.97;;;;;;;5.61;67.73;102605.66;1684629;84;25815;-68
2021/10/01 02:47:19;;;;;;;14.80;8.40;;;;;;;5.65;67.80;102610.41;1695610;84;25892;-65
2021/10/01 02:49:47;;;;;;;21.02;8.90;;;;;;;5.66;67.85;102604.14;1707420;84;27462;-65
2021/10/01 02:52:28;;;;;;;19.17;8.55;;;;;;;5.69;67.61;102602.70;1685264;84;25816;-67
2021/10/01 02:55:22;;;;;;;17.60;9.43;;;;;;;5.70;67.37;102599.11;1690239;84;25717;-67
2021/10/01 02:58:01;;;;;;;19.85;9.70;;;;;;;5.72;67.49;102596.37;1710753;81;25811;-66
2021/10/01 03:00:34;;;;;;;17.85;9.38;;;;;;;5.70;67.36;102597.77;1727146;81;25622;-67
2021/10/01 03:03:15;;;;;;;17.95;10.78;;;;;;;5.68;67.12;102604.11;1706104;83;27431;-66
2021/10/01 03:05:43;;;;;;;17.27;10.28;;;;;;;5.66;66.93;102599.28;1702302;83;25790;-66
2021/10/01 03:08:14;;;;;;;19.48;9.58;;;;;;;5.61;66.63;102598.98;1712061;83;25707;-67
2021/10/01 03:10:46;;;;;;;11.73;9.00;;;;;;;5.56;66.42;102602.79;1711677;83;25787;-66
2021/10/01 03:13:16;;;;;;;19.82;9.45;;;;;;;5.50;66.32;102601.22;1712216;83;25777;-66
2021/10/01 03:15:44;;;;;;;18.25;10.00;;;;;;;5.44;66.23;102606.32;1705967;83;27463;-67
2021/10/01 03:18:11;;;;;;;19.48;10.08;;;;;;;5.38;66.21;102607.00;1712086;83;25792;-66
2021/10/01 03:20:39;;;;;;;22.73;11.45;;;;;;;5.33;66.22;102609.36;1711779;83;25754;-66
2021/10/01 03:23:07;;;;;;;17.85;11.53;;;;;;;5.27;66.27;102613.61;1711858;83;25784;-66
2021/10/01 03:25:34;;;;;;;31.05;11.48;;;;;;;5.22;66.18;102611.58;1711945;83;25826;-67
2021/10/01 03:28:01;;;;;;;22.48;11.35;;;;;;;5.16;66.28;102616.67;1715603;83;28133;-67
2021/10/01 03:30:29;;;;;;;20.25;10.98;;;;;;;5.10;66.33;102608.02;1716108;83;25793;-66
2021/10/01 03:32:57;;;;;;;16.32;10.68;;;;;;;5.09;66.69;102612.94;1716539;83;25721;-67
2021/10/01 03:35:26;;;;;;;17.87;10.63;;;;;;;5.05;66.63;102618.84;1703544;82;25762;-67
2021/10/01 03:37:53;;;;;;;25.25;12.15;;;;;;;4.99;66.58;102611.92;1710670;83;25730;-65
2021/10/01 03:40:22;;;;;;;23.55;13.48;;;;;;;4.95;66.60;102608.98;1695838;83;27492;-65
2021/10/01 03:42:49;;;;;;;20.05;11.85;;;;;;;4.91;66.67;102610.48;1695708;83;25768;-67
2021/10/01 03:45:18;;;;;;;20.15;11.10;;;;;;;4.85;66.63;102612.89;1695931;83;25822;-68
2021/10/01 03:47:55;;;;;;;21.77;10.85;;;;;;;4.75;66.41;102605.66;1700776;82;26274;-67
2021/10/01 03:50:41;;;;;;;21.30;10.93;;;;;;;4.70;66.55;102611.17;1692745;83;25326;-67
2021/10/01 03:53:24;;;;;;;20.95;9.80;;;;;;;4.67;66.98;102605.05;1693845;83;26024;-68
2021/10/01 03:55:56;;;;;;;19.85;10.20;;;;;;;4.66;67.20;102604.19;1694028;83;25390;-70
2021/10/01 03:58:28;;;;;;;19.82;9.43;;;;;;;4.66;67.97;102604.67;1693652;84;25248;-67
2021/10/01 04:00:56;;;;;;;27.85;8.60;;;;;;;4.67;67.72;102605.94;1694814;83;26634;-65
2021/10/01 04:03:24;;;;;;;21.15;9.28;;;;;;;4.67;67.89;102605.94;1695642;83;26239;-64
2021/10/01 04:05:53;;;;;;;21.40;9.88;;;;;;;4.65;67.79;102605.11;1694916;84;27510;-68
2021/10/01 04:08:34;;;;;;;19.40;9.33;;;;;;;4.66;68.10;102606.00;1688035;82;25805;-67
2021/10/01 04:10:58;;;;;;;23.50;9.00;;;;;;;4.68;68.59;102613.45;1689787;84;25865;-67
2021/10/01 04:13:26;;;;;;;21.80;9.00;;;;;;;4.74;68.24;102616.38;1695611;84;25770;-70
2021/10/01 04:15:54;;;;;;;16.85;9.15;;;;;;;4.79;68.32;102621.11;1695089;84;26406;-67
2021/10/01 04:18:26;;;;;;;20.25;9.85;;;;;;;4.86;68.46;102619.97;1695750;83;27078;-68
2021/10/01 04:20:52;;;;;;;23.30;8.80;;;;;;;4.92;68.33;102617.55;1695250;84;25774;-69
2021/10/01 04:23:20;;;;;;;21.90;9.00;;;;;;;4.96;68.19;102617.84;1695405;83;26223;-66
2021/10/01 04:25:54;;;;;;;17.80;8.83;;;;;;;4.93;68.03;102617.97;1694298;84;26972;-68
2021/10/01 04:28:23;;;;;;;14.47;8.75;;;;;;;4.95;67.97;102620.09;1694581;84;26508;-67
2021/10/01 04:30:53;;;;;;;15.13;9.70;;;;;;;4.96;68.03;102625.84;1695011;83;28110;-67
2021/10/01 04:33:23;;;;;;;21.20;10.58;;;;;;;4.99;67.99;102626.59;1694025;84;26492;-65
2021/10/01 04:35:52;;;;;;;18.23;10.40;;;;;;;5.04;67.83;102622.91;1693968;84;25789;-66
2021/10/01 04:38:24;;;;;;;33.20;11.28;;;;;;;5.05;67.64;102625.99;1695048;84;26508;-67
2021/10/01 04:40:53;;;;;;;25.88;11.15;;;;;;;5.05;67.49;102624.66;1666807;84;26497;-68
2021/10/01 04:43:21;;;;;;;26.93;10.25;;;;;;;5.07;67.36;102625.00;1694300;84;28602;-68
2021/10/01 04:46:07;;;;;;;19.25;11.22;;;;;;;5.05;67.13;102627.33;1678556;84;25759;-66
2021/10/01 04:48:34;;;;;;;26.82;12.15;;;;;;;5.03;67.11;102631.84;1665752;84;25876;-68
2021/10/01 04:51:02;;;;;;;30.27;12.82;;;;;;;5.00;66.97;102636.34;1695213;84;25860;-67
2021/10/01 04:53:29;;;;;;;21.23;12.30;;;;;;;4.99;66.92;102634.60;1695446;83;25731;-67
2021/10/01 04:55:56;;;;;;;23.00;12.28;;;;;;;4.97;66.95;102639.14;1695004;83;28157;-67
2021/10/01 04:58:23;;;;;;;27.10;14.83;;;;;;;4.96;66.98;102634.73;1694426;84;25819;-67
2021/10/01 05:00:52;;;;;;;31.60;14.98;;;;;;;4.97;67.09;102628.92;1654634;84;25811;-67
2021/10/01 05:03:39;;;;;;;45.78;14.35;;;;;;;4.98;67.33;102634.66;1638576;86;25950;-67
2021/10/01 05:06:26;;;;;;;60.40;16.75;;;;;;;5.00;67.24;102635.49;1580165;89;26565;-66
2021/10/01 05:09:00;;;;;;;47.33;14.68;;;;;;;5.00;67.24;102639.48;1575116;88;27613;-67
2021/10/01 05:11:46;;;;;;;43.65;14.35;;;;;;;5.01;67.24;102642.09;1647885;83;25907;-67
2021/10/01 05:14:31;;;;;;;38.13;15.05;;;;;;;5.01;67.37;102641.23;1693727;84;26404;-65
2021/10/01 05:17:16;;;;;;;32.08;14.87;;;;;;;5.04;67.20;102640.25;1694790;84;25889;-65
2021/10/01 05:20:05;;;;;;;36.10;14.10;;;;;;;5.06;67.37;102645.94;1695323;83;25769;-65
2021/10/01 05:22:35;;;;;;;36.90;14.07;;;;;;;5.08;67.31;102643.20;1694840;83;28297;-67
2021/10/01 05:25:04;;;;;;;46.28;13.55;;;;;;;5.11;67.37;102651.97;1695233;83;26101;-68
2021/10/01 05:27:32;;;;;;;42.20;13.72;;;;;;;5.16;67.39;102654.02;1691143;83;25890;-68
2021/10/01 05:30:00;;;;;;;42.98;13.40;;;;;;;5.23;67.60;102656.47;1690142;83;25845;-67
2021/10/01 05:32:30;;;;;;;43.58;13.50;;;;;;;5.28;67.79;102652.70;1691228;83;25782;-67
2021/10/01 05:35:02;;;;;;;43.13;13.00;;;;;;;5.35;67.87;102652.48;1691203;84;28331;-66
2021/10/01 05:37:29;;;;;;;46.00;14.58;;;;;;;5.44;68.11;102654.37;1689237;83;26033;-67
2021/10/01 05:39:57;;;;;;;42.00;13.08;;;;;;;5.52;68.26;102648.72;1699650;82;25973;-67
2021/10/01 05:42:24;;;;;;;41.88;14.58;;;;;;;5.61;68.42;102662.20;1703247;83;25887;-67
2021/10/01 05:44:53;;;;;;;38.25;11.97;;;;;;;5.71;68.55;102659.60;1713688;83;25762;-67
2021/10/01 05:47:32;;;;;;;33.75;12.05;;;;;;;5.84;68.60;102655.11;1712281;82;28169;-65
2021/10/01 05:50:20;;;;;;;28.35;10.75;;;;;;;5.99;68.63;102661.66;1717084;83;25746;-65
2021/10/01 05:53:13;;;;;;;33.63;11.03;;;;;;;6.10;68.62;102660.82;1716542;82;26025;-67
2021/10/01 05:55:53;;;;;;;36.58;11.25;;;;;;;6.23;68.72;102659.39;1718859;83;25847;-68
2021/10/01 05:58:43;;;;;;;31.77;10.40;;;;;;;6.37;68.78;102668.67;1695625;83;25823;-66
2021/10/01 06:01:12;;;;;;;33.50;11.95;;;;;;;6.49;68.73;102661.50;1717848;83;33154;-68
2021/10/01 06:03:39;;;;;;;40.30;12.03;;;;;;;6.60;68.53;102665.05;1718045;83;26589;-67
2021/10/01 06:06:06;;;;;;;29.63;11.35;;;;;;;6.72;68.45;102667.20;1722321;83;25690;-67
2021/10/01 06:08:33;;;;;;;33.02;11.95;;;;;;;6.82;68.23;102675.72;1721048;82;25749;-66
2021/10/01 06:11:01;;;;;;;32.17;12.00;;;;;;;6.85;68.05;102674.27;1716507;83;25722;-67
2021/10/01 06:13:27;;;;;;;28.45;11.15;;;;;;;6.93;68.05;102675.26;1716431;83;27438;-66
2021/10/01 06:15:55;;;;;;;33.05;11.97;;;;;;;6.99;68.10;102676.32;1716514;83;25732;-66
2021/10/01 06:18:22;;;;;;;29.32;12.93;;;;;;;7.04;67.89;102675.67;1716408;83;25724;-66
2021/10/01 06:20:49;;;;;;;31.65;12.05;;;;;;;7.11;67.85;102672.27;1719943;83;26219;-66
2021/10/01 06:23:22;;;;;;;32.35;13.90;;;;;;;7.15;67.66;102668.99;1722587;83;25884;-69
2021/10/01 06:25:46;;;;;;;24.18;12.07;;;;;;;7.18;67.60;102668.84;1722068;83;27418;-66
2021/10/01 06:28:13;;;;;;;35.05;13.65;;;;;;;7.22;67.47;102670.94;1716113;82;25905;-67
2021/10/01 06:30:42;;;;;;;32.70;13.65;;;;;;;7.26;67.47;102667.17;1709662;83;25812;-65
2021/10/01 06:33:09;;;;;;;36.95;13.10;;;;;;;7.31;67.41;102670.50;1723690;82;25873;-66
2021/10/01 06:35:36;;;;;;;34.65;13.03;;;;;;;7.38;67.35;102669.31;1715956;83;25761;-66
2021/10/01 06:38:03;;;;;;;32.05;13.18;;;;;;;7.44;67.27;102670.37;1716152;83;27490;-66
2021/10/01 06:40:30;;;;;;;39.50;14.33;;;;;;;7.51;67.16;102674.50;1720702;82;25741;-68
2021/10/01 06:42:57;;;;;;;39.45;13.65;;;;;;;7.57;67.20;102677.37;1731665;81;25852;-68
2021/10/01 06:45:28;;;;;;;36.93;12.93;;;;;;;7.64;67.00;102677.97;1734502;81;26183;-67
2021/10/01 06:48:08;;;;;;;35.80;13.80;;;;;;;7.71;67.12;102682.59;1732577;81;25860;-68
2021/10/01 08:20:47;;;;;;;23.45;5.22;;;;;;;13.46;46.92;102648.48;1681671;84;25930;-66
2021/10/01 08:23:15;;;;;;;11.12;5.28;;;;;;;13.68;45.37;102646.92;1678733;85;25921;-67
2021/10/01 08:25:43;;;;;;;18.62;5.70;;;;;;;13.89;45.85;102649.05;1663897;86;27572;-68
2021/10/01 08:28:10;;;;;;;17.90;4.65;;;;;;;14.11;44.32;102647.49;1661146;84;25843;-67
2021/10/01 08:30:39;;;;;;;19.07;4.75;;;;;;;14.32;44.34;102647.73;1659701;86;25840;-65
2021/10/01 08:33:06;;;;;;;11.57;4.60;;;;;;;14.53;44.03;102644.73;1665089;84;26138;-69
2021/10/01 08:35:33;;;;;;;13.08;4.78;;;;;;;14.73;42.90;102641.04;1665411;85;26091;-68
2021/10/01 08:38:00;;;;;;;11.30;4.97;;;;;;;14.93;42.30;102643.55;1665374;85;27479;-67
2021/10/01 08:40:27;;;;;;;18.25;6.10;;;;;;;15.12;42.40;102641.65;1664770;84;25847;-69
2021/10/01 08:42:56;;;;;;;12.58;4.95;;;;;;;15.35;41.07;102647.09;1663356;84;25865;-66
2021/10/01 08:45:25;;;;;;;14.85;3.87;;;;;;;15.60;42.09;102643.28;1664349;86;26562;-66
2021/10/01 08:47:57;;;;;;;8.63;3.75;;;;;;;15.82;40.03;102634.77;1663767;84;25732;-65
2021/10/01 08:50:29;;;;;;;20.97;4.42;;;;;;;16.09;40.24;102629.45;1658071;84;27478;-66
2021/10/01 08:52:59;;;;;;;17.02;4.60;;;;;;;16.40;37.77;102639.97;1665084;84;26003;-67
2021/10/01 08:55:28;;;;;;;15.45;4.65;;;;;;;16.65;36.29;102631.58;1664147;84;25863;-67
2021/10/01 08:57:55;;;;;;;11.30;4.47;;;;;;;16.83;35.66;102629.16;1662114;86;26401;-68
2021/10/01 09:00:23;;;;;;;9.30;3.65;;;;;;;17.04;36.19;102624.59;1664639;84;25834;-66
2021/10/01 09:02:50;;;;;;;17.35;3.80;;;;;;;17.32;34.42;102613.16;1669911;84;27420;-68
2021/10/01 09:05:19;;;;;;;11.28;2.85;;;;;;;17.51;34.22;102620.05;1692893;84;25836;-69
2021/10/01 09:07:46;;;;;;;11.05;3.75;;;;;;;17.88;34.91;102616.37;1680309;84;25953;-68
2021/10/01 09:10:16;;;;;;;17.95;3.40;;;;;;;18.35;34.16;102615.23;1679560;84;26559;-67
2021/10/01 09:12:58;;;;;;;8.78;3.27;;;;;;;19.04;33.93;102615.20;1679840;84;25851;-67
2021/10/01 09:15:22;;;;;;;10.78;3.27;;;;;;;19.92;32.73;102614.00;1692785;84;27663;-67
2021/10/01 09:17:53;;;;;;;10.60;2.90;;;;;;;20.86;29.88;102600.38;1660044;84;26956;-67
2021/10/01 09:20:25;;;;;;;18.92;3.77;;;;;;;21.60;31.14;102602.72;1666966;84;25940;-68
2021/10/01 09:23:11;;;;;;;11.00;2.90;;;;;;;22.19;28.92;102596.35;1661394;86;25898;-68
2021/10/01 09:25:38;;;;;;;15.13;3.08;;;;;;;22.82;28.49;102601.69;1664032;85;25877;-67
2021/10/01 09:28:12;;;;;;;19.60;3.40;;;;;;;23.50;27.53;102602.74;1679942;85;27462;-68
2021/10/01 09:30:44;;;;;;;6.58;3.17;;;;;;;24.11;27.48;102609.50;1672076;83;26351;-67
2021/10/01 09:33:14;;;;;;;12.28;2.65;;;;;;;24.69;25.42;102605.31;1713786;82;25771;-68
2021/10/01 09:35:43;;;;;;;9.18;2.80;;;;;;;25.24;24.97;102595.42;1714029;83;25831;-69
2021/10/01 09:38:20;;;;;;;10.78;2.62;;;;;;;25.76;24.18;102601.03;1713957;83;25818;-66
2021/10/01 09:41:12;;;;;;;9.45;2.17;;;;;;;26.22;23.87;102591.03;1711691;82;28380;-66
2021/10/01 09:43:39;;;;;;;11.10;2.50;;;;;;;26.62;22.16;102598.85;1684151;83;26263;-68
2021/10/01 09:46:12;;;;;;;12.70;2.25;;;;;;;27.15;22.38;102596.17;1658782;85;25795;-68
2021/10/01 09:48:40;;;;;;;12.85;2.52;;;;;;;27.47;21.14;102598.83;1679322;85;25795;-68
2021/10/01 09:51:17;;;;;;;7.60;2.30;;;;;;;27.82;20.76;102589.58;1679488;85;25761;-68
2021/10/01 09:53:48;;;;;;;6.05;2.05;;;;;;;28.03;20.30;102587.18;1679182;85;28156;-68
2021/10/01 09:56:30;;;;;;;6.33;2.08;;;;;;;28.18;19.89;102582.88;1668169;85;25812;-68
2021/10/01 09:59:16;;;;;;;5.40;2.50;;;;;;;28.58;19.08;102580.66;1675192;84;25938;-68
2021/10/01 10:02:00;;;;;;;10.80;3.17;;;;;;;28.88;19.35;102578.31;1668175;85;25900;-69
2021/10/01 10:04:36;;;;;;;9.75;2.90;;;;;;;29.24;19.00;102576.11;1665230;84;25822;-69
2021/10/01 10:07:26;;;;;;;8.70;2.95;;;;;;;29.62;17.62;102580.91;1650200;85;27496;-69
2021/10/01 10:10:09;;;;;;;13.13;2.85;;;;;;;29.74;18.37;102579.66;1722252;83;25834;-68
2021/10/01 10:12:42;;;;;;;5.87;2.35;;;;;;;30.13;17.14;102572.72;1724316;83;26026;-69
2021/10/01 10:15:15;;;;;;;14.75;2.45;;;;;;;30.01;17.34;102575.89;1724685;81;25803;-68
2021/10/01 10:17:49;;;;;;;8.75;2.27;;;;;;;30.05;16.94;102572.44;1719985;81;25742;-68
2021/10/01 10:20:19;;;;;;;31.57;3.15;;;;;;;30.18;17.00;102573.44;1717475;83;27426;-68
2021/10/01 10:22:47;;;;;;;7.28;2.15;;;;;;;30.50;16.02;102571.98;1713937;83;25738;-67
2021/10/01 10:25:14;;;;;;;7.45;2.02;;;;;;;30.69;17.36;102565.98;1713820;83;25856;-68
2021/10/01 10:27:49;;;;;;;7.08;2.55;;;;;;;30.98;16.69;102562.14;1722102;82;26354;-68
2021/10/01 10:30:18;;;;;;;6.65;2.33;;;;;;;31.26;16.46;102557.48;1712243;83;25768;-69
2021/10/01 10:32:44;;;;;;;15.13;2.72;;;;;;;31.39;15.89;102560.62;1714070;83;27493;-67
2021/10/01 10:35:11;;;;;;;8.23;2.22;;;;;;;31.46;15.61;102562.78;1642862;85;26584;-68
2021/10/01 10:37:48;;;;;;;5.95;1.90;;;;;;;31.60;14.97;102560.67;1710018;83;25786;-70
2021/10/01 10:40:18;;;;;;;8.88;1.95;;;;;;;31.67;14.97;102551.71;1714263;81;26865;-69
2021/10/01 10:42:49;;;;;;;7.67;2.22;;;;;;;31.88;15.69;102548.63;1716163;82;25759;-69
2021/10/01 10:45:25;;;;;;;8.60;2.25;;;;;;;32.14;14.91;102545.98;1718696;83;27458;-69
2021/10/01 10:48:09;;;;;;;9.13;2.85;;;;;;;32.13;14.97;102536.80;1706221;84;25814;-67
2021/10/01 10:50:44;;;;;;;15.63;3.05;;;;;;;32.28;14.61;102536.34;1705993;83;25718;-69
2021/10/01 10:53:23;;;;;;;16.27;3.35;;;;;;;32.44;14.13;102530.61;1706437;83;25754;-69
2021/10/01 10:56:05;;;;;;;14.53;2.55;;;;;;;32.35;14.53;102532.05;1703048;84;25739;-70
2021/10/01 10:58:41;;;;;;;10.03;2.00;;;;;;;32.49;14.67;102528.48;1703646;82;27415;-70
2021/10/01 11:01:29;;;;;;;34.58;3.77;;;;;;;32.77;14.65;102534.70;1701885;84;26184;-70
2021/10/01 11:03:59;;;;;;;10.82;2.42;;;;;;;33.13;14.15;102534.68;1702919;82;25805;-69
2021/10/01 11:06:32;;;;;;;4.33;1.98;;;;;;;33.19;13.70;102525.32;1690386;83;25806;-68
2021/10/01 11:09:22;;;;;;;6.53;2.27;;;;;;;32.89;13.40;102526.91;1713326;83;25810;-69
2021/10/01 11:11:51;;;;;;;8.40;2.52;;;;;;;32.66;13.92;102525.83;1713700;83;27558;-69
2021/10/01 11:14:28;;;;;;;8.63;2.35;;;;;;;32.37;13.46;102524.84;1710467;83;25840;-71
2021/10/01 11:17:03;;;;;;;7.22;2.30;;;;;;;31.90;13.89;102521.42;1713520;83;26150;-69
2021/10/01 11:19:43;;;;;;;15.25;3.20;;;;;;;31.41;14.11;102522.84;1713327;83;25846;-68
2021/10/01 11:22:36;;;;;;;11.08;2.45;;;;;;;31.20;14.40;102518.95;1709735;83;26044;-68
2021/10/01 11:25:17;;;;;;;3.58;2.05;;;;;;;30.62;14.58;102519.38;1706528;83;27609;-68
2021/10/01 11:27:55;;;;;;;10.30;2.35;;;;;;;30.11;15.49;102505.48;1726750;81;26456;-69
2021/10/01 11:30:24;;;;;;;8.60;2.40;;;;;;;29.90;15.65;102502.52;1734377;81;25762;-68
2021/10/01 11:32:52;;;;;;;6.70;2.87;;;;;;;29.82;15.36;102496.19;1734542;82;25888;-69
2021/10/01 11:35:20;;;;;;;11.20;2.37;;;;;;;29.62;15.83;102496.84;1734230;81;25928;-69
2021/10/01 11:37:50;;;;;;;12.47;3.00;;;;;;;29.46;15.72;102495.44;1711505;82;28109;-69
2021/10/01 11:40:24;;;;;;;12.18;2.62;;;;;;;29.27;15.55;102498.05;1701657;82;25966;-70
2021/10/01 11:42:56;;;;;;;15.15;2.90;;;;;;;29.05;15.47;102484.52;1729663;80;25787;-69
2021/10/01 11:45:35;;;;;;;13.18;3.02;;;;;;;28.85;15.82;102487.89;1737213;82;25806;-68
2021/10/01 11:48:09;;;;;;;4.72;2.47;;;;;;;28.61;15.96;102486.63;1737534;81;25856;-70
2021/10/01 11:50:44;;;;;;;17.90;3.42;;;;;;;28.21;16.57;102480.09;1737490;81;28323;-68
2021/10/01 11:53:27;;;;;;;17.62;3.05;;;;;;;27.90;16.83;102484.30;1737754;82;26218;-68
2021/10/01 11:56:02;;;;;;;11.60;3.17;;;;;;;27.67;16.88;102470.86;1736482;82;25719;-69
2021/10/01 11:58:32;;;;;;;7.95;2.60;;;;;;;27.48;17.09;102477.52;1714218;83;26467;-70
2021/10/01 12:01:15;;;;;;;19.10;3.20;;;;;;;27.48;17.38;102470.61;1714271;83;25842;-68
2021/10/01 12:04:04;;;;;;;11.93;2.65;;;;;;;27.49;17.05;102472.86;1714414;83;27460;-69
2021/10/01 12:06:35;;;;;;;19.45;3.17;;;;;;;27.29;17.05;102468.09;1712953;83;26311;-68
2021/10/01 12:09:07;;;;;;;15.20;2.87;;;;;;;27.24;16.87;102474.78;1714368;82;26578;-68
2021/10/01 12:11:40;;;;;;;13.68;2.92;;;;;;;27.28;17.35;102475.21;1714263;83;25830;-68
2021/10/01 12:14:17;;;;;;;12.07;2.70;;;;;;;27.42;16.59;102470.03;1714471;83;25746;-70
2021/10/01 12:17:00;;;;;;;11.10;2.77;;;;;;;27.50;16.62;102470.42;1713782;83;27567;-69
2021/10/01 12:19:30;;;;;;;25.75;3.08;;;;;;;27.57;16.78;102462.98;1691002;83;25724;-68
2021/10/01 12:22:08;;;;;;;13.68;3.10;;;;;;;28.06;16.80;102466.44;1690741;83;25765;-69
2021/10/01 12:24:51;;;;;;;9.28;2.55;;;;;;;28.51;16.76;102460.79;1713342;82;26795;-68
2021/10/01 12:27:23;;;;;;;19.15;2.75;;;;;;;28.97;15.84;102457.06;1726916;81;25822;-70
2021/10/01 12:29:52;;;;;;;22.42;2.98;;;;;;;29.46;15.89;102458.88;1736266;82;27452;-69
2021/10/01 12:32:21;;;;;;;6.03;2.20;;;;;;;29.59;15.23;102454.30;1737184;81;26498;-69
2021/10/01 12:34:58;;;;;;;8.45;2.10;;;;;;;29.93;15.50;102453.57;1734860;81;25789;-69
2021/10/01 12:37:29;;;;;;;9.90;2.10;;;;;;;30.63;14.82;102448.84;1719710;83;25800;-70
2021/10/01 12:40:00;;;;;;;17.45;2.45;;;;;;;31.17;14.64;102444.36;1719651;83;26427;-69
2021/10/01 12:42:37;;;;;;;7.80;2.15;;;;;;;31.45;13.17;102444.28;1716662;82;28148;-69
2021/10/01 12:45:17;;;;;;;9.35;2.80;;;;;;;31.59;13.72;102439.92;1704144;82;25761;-69
2021/10/01 12:47:50;;;;;;;3.72;2.10;;;;;;;31.76;13.97;102435.92;1648340;85;26193;-69
2021/10/01 12:50:30;;;;;;;8.95;2.52;;;;;;;32.35;13.65;102435.98;1683824;84;25794;-68
2021/10/01 12:53:01;;;;;;;4.33;2.05;;;;;;;33.01;12.61;102442.73;1683256;84;25806;-70
2021/10/01 12:55:30;;;;;;;5.45;2.17;;;;;;;33.41;12.79;102434.03;1683720;85;28319;-70
2021/10/01 12:57:57;;;;;;;8.15;1.72;;;;;;;33.95;12.14;102428.55;1702229;83;25761;-69
2021/10/01 13:00:37;;;;;;;10.00;2.40;;;;;;;34.33;12.02;102433.87;1694634;82;25814;-69
2021/10/01 13:03:09;;;;;;;5.87;2.50;;;;;;;34.59;12.05;102421.11;1694718;82;26498;-70
2021/10/01 13:05:44;;;;;;;11.28;2.25;;;;;;;35.02;11.74;102424.18;1704485;83;25729;-70
2021/10/01 13:08:15;;;;;;;5.25;2.02;;;;;;;35.44;11.79;102425.48;1699724;82;27487;-70
2021/10/01 13:11:00;;;;;;;4.17;2.35;;;;;;;35.80;11.26;102420.19;1701985;83;26551;-69
2021/10/01 13:13:33;;;;;;;8.68;2.45;;;;;;;36.04;10.64;102419.25;1702114;83;25803;-70
2021/10/01 13:16:11;;;;;;;5.33;2.20;;;;;;;36.33;10.86;102420.27;1704241;83;25825;-71
2021/10/01 13:18:38;;;;;;;5.47;2.25;;;;;;;36.52;10.59;102424.61;1695797;83;25777;-70